Avella, Pennsylvania
Current Conditions -  °F | °C
As of 1:53 PM on Sunday 23 Nov 2014 (Local Time) from KHLG Reporting Station
Scattered Clouds Scattered Clouds  
Wind Chill: 65°   Ceiling: Unl
Heat Index: 65°   Visibility: 10mi
Dew Point: 44°   Wind: 9mph
Humidity: 47%   Direction: 150°SSE
Pressure: 29.91"   Gusts: NA
Location:  40.28°N, 80.46°W
Report Text: KHLG 231853Z 15008KT 10SM SCT038 18/07 A2991 RMK AO2 SLP129 T01830067
Loading
Personal Weather Stations






























Interactive Weather Map New forecast layout! Learn more

10-Day Weather Forecast

Advertisements
Track Severe Weather on mobile